createdAt,value
2023-03-31T00:02:18.641Z,0.9
2023-03-31T00:05:20.562Z,1.3
2023-03-31T00:08:22.531Z,1.3
2023-03-31T00:11:24.494Z,0.9
2023-03-31T00:14:26.444Z,1.6
2023-03-31T00:17:28.418Z,1.3
2023-03-31T00:20:30.359Z,1.2
2023-03-31T00:23:32.327Z,1.1
2023-03-31T00:26:34.269Z,1.1
2023-03-31T00:29:36.226Z,1.1
2023-03-31T00:32:38.220Z,1.1
2023-03-31T00:35:40.206Z,1.5
2023-03-31T00:38:42.126Z,0.9
2023-03-31T00:41:44.082Z,1.7
2023-03-31T00:44:46.046Z,1.9
2023-03-31T00:47:48.033Z,1.3
2023-03-31T00:50:50.030Z,2
2023-03-31T00:53:51.988Z,1.4
2023-03-31T00:56:53.950Z,2
2023-03-31T00:59:55.920Z,1.3
2023-03-31T01:02:57.926Z,1.3
2023-03-31T01:05:59.916Z,2.1
2023-03-31T01:09:01.860Z,2.1
2023-03-31T01:12:03.804Z,1.6
2023-03-31T01:15:05.756Z,1.5
2023-03-31T01:18:07.790Z,1.6
2023-03-31T01:21:09.690Z,1.8
2023-03-31T01:24:11.637Z,1.4
2023-03-31T01:27:13.618Z,1.4
2023-03-31T01:30:15.563Z,1.3
2023-03-31T01:33:17.534Z,1.7
2023-03-31T01:36:19.476Z,1.7
2023-03-31T01:39:21.464Z,1.8
2023-03-31T01:42:23.408Z,1.6
2023-03-31T01:45:25.360Z,1.5
2023-03-31T01:48:27.344Z,1.1
2023-03-31T01:51:29.288Z,1.8
2023-03-31T01:54:31.265Z,1.5
2023-03-31T01:57:33.198Z,1.9
2023-03-31T02:00:35.244Z,1.6
2023-03-31T02:03:37.238Z,1.9
2023-03-31T02:06:39.101Z,2
2023-03-31T02:09:41.037Z,2
2023-03-31T02:12:43.030Z,1.6
2023-03-31T02:15:44.961Z,1.9
2023-03-31T02:18:46.937Z,1.6
2023-03-31T02:21:48.934Z,1.6
2023-03-31T02:24:50.933Z,2
2023-03-31T02:27:52.907Z,1.8
2023-03-31T02:30:54.854Z,2.5
2023-03-31T02:33:56.838Z,1.8
2023-03-31T02:36:58.764Z,2
2023-03-31T02:40:00.736Z,1.9
2023-03-31T02:43:02.710Z,1.6
2023-03-31T02:46:04.757Z,1.8
2023-03-31T02:49:06.590Z,1.4
2023-03-31T02:52:08.559Z,1.7
2023-03-31T02:55:10.553Z,1.6
2023-03-31T02:58:12.530Z,2
2023-03-31T03:01:14.566Z,1.8
2023-03-31T03:04:16.461Z,2.1
2023-03-31T03:07:18.417Z,1.7
2023-03-31T03:10:20.373Z,1.9
2023-03-31T03:13:22.351Z,2
2023-03-31T03:16:24.334Z,2.3
2023-03-31T03:19:26.262Z,1.5
2023-03-31T03:22:28.403Z,2.3
2023-03-31T03:25:30.212Z,2.3
2023-03-31T03:28:32.148Z,2.4
2023-03-31T03:31:34.125Z,1.9
2023-03-31T03:34:36.089Z,1.9
2023-03-31T03:37:38.045Z,2.2
2023-03-31T03:40:40.022Z,2.1
2023-03-31T03:43:42.026Z,1.9
2023-03-31T03:46:44.044Z,1.7
2023-03-31T03:49:45.971Z,1.7
2023-03-31T03:52:47.913Z,1.9
2023-03-31T03:55:49.878Z,1.7
2023-03-31T03:58:51.824Z,1.5
2023-03-31T04:01:53.804Z,2
2023-03-31T04:04:55.831Z,2
2023-03-31T04:07:57.699Z,1.8
2023-03-31T04:10:59.658Z,2.1
2023-03-31T04:14:01.630Z,2.2
2023-03-31T04:17:03.578Z,2.1
2023-03-31T04:20:05.569Z,1.6
2023-03-31T04:23:07.506Z,1.9
2023-03-31T04:26:09.500Z,2
2023-03-31T04:29:11.484Z,2.2
2023-03-31T04:32:13.589Z,1.7
2023-03-31T04:35:15.439Z,1.9
2023-03-31T04:38:17.398Z,1.6
2023-03-31T04:41:19.365Z,1.9
2023-03-31T04:44:21.355Z,2
2023-03-31T04:47:23.338Z,2.2
2023-03-31T04:50:25.266Z,2.3
2023-03-31T04:53:27.222Z,2
2023-03-31T04:56:29.202Z,2.2
2023-03-31T04:59:31.157Z,2
2023-03-31T05:02:33.192Z,1.7
2023-03-31T05:05:35.077Z,1.8
2023-03-31T05:08:37.054Z,1.8
2023-03-31T05:11:39.033Z,1.9
2023-03-31T05:14:40.973Z,1.6
2023-03-31T05:17:42.951Z,1.6
2023-03-31T05:20:44.915Z,1.8
2023-03-31T05:23:46.881Z,2.4
2023-03-31T05:26:48.830Z,2.5
2023-03-31T05:29:50.778Z,1.8
2023-03-31T05:32:52.817Z,1.8
2023-03-31T05:35:54.725Z,1.8
2023-03-31T05:38:56.735Z,1.7
2023-03-31T05:41:58.638Z,1.6
2023-03-31T05:45:00.559Z,1.9
2023-03-31T05:48:02.630Z,1.6
2023-03-31T05:51:04.495Z,1.9
2023-03-31T05:54:06.547Z,1.9
2023-03-31T05:57:08.473Z,2.1
2023-03-31T06:00:10.443Z,2.1
2023-03-31T06:03:12.404Z,2.1
2023-03-31T06:06:14.319Z,2.4
2023-03-31T06:09:16.261Z,1.9
2023-03-31T06:12:18.226Z,2.9
2023-03-31T06:15:20.175Z,2.2
2023-03-31T06:18:22.169Z,2.1
2023-03-31T06:21:24.111Z,2.6
2023-03-31T06:24:26.072Z,2.5
2023-03-31T06:27:28.035Z,2.1
2023-03-31T06:30:30.002Z,1.9
2023-03-31T06:33:31.985Z,2.8
2023-03-31T06:36:33.952Z,2
2023-03-31T06:39:35.913Z,1.9
2023-03-31T06:42:37.845Z,2.2
2023-03-31T06:45:39.850Z,2.6
2023-03-31T06:48:41.795Z,2.1
2023-03-31T06:51:43.732Z,2.8
2023-03-31T06:54:45.723Z,2.4
2023-03-31T06:57:47.742Z,2.7
2023-03-31T07:00:49.612Z,2.7
2023-03-31T07:03:51.639Z,2.8
2023-03-31T07:06:53.571Z,2.9
2023-03-31T07:09:56.309Z,2.2
2023-03-31T07:12:57.503Z,2.5
2023-03-31T07:15:59.482Z,2.9
2023-03-31T07:19:01.452Z,2.7
2023-03-31T07:22:03.395Z,3.1
2023-03-31T07:25:05.560Z,3.1
2023-03-31T07:28:07.328Z,3.9
2023-03-31T07:31:09.316Z,3.9
2023-03-31T07:34:11.505Z,4.1
2023-03-31T07:37:13.235Z,4.3
2023-03-31T07:40:15.189Z,3.6
2023-03-31T07:43:17.161Z,4.4
2023-03-31T07:46:19.213Z,4
2023-03-31T07:49:21.058Z,4.4
2023-03-31T07:52:23.109Z,3.6
2023-03-31T07:55:25.069Z,3.6
2023-03-31T07:58:27.087Z,3
2023-03-31T08:01:29.008Z,3.1
2023-03-31T08:04:30.965Z,2.7
2023-03-31T08:07:32.890Z,3.2
2023-03-31T08:10:34.850Z,3.1
2023-03-31T08:13:36.820Z,2.7
2023-03-31T08:16:38.822Z,3.6
2023-03-31T08:19:40.731Z,3.3
2023-03-31T08:22:42.755Z,3.3
2023-03-31T08:25:44.683Z,3.8
2023-03-31T08:28:46.663Z,3.8
2023-03-31T08:31:48.612Z,3.3
2023-03-31T08:34:50.564Z,3.4
2023-03-31T08:37:52.542Z,3.5
2023-03-31T08:40:54.493Z,3.1
2023-03-31T08:43:56.458Z,3
2023-03-31T08:46:58.412Z,3
2023-03-31T08:50:00.414Z,3.2
2023-03-31T08:53:02.352Z,2.9
2023-03-31T08:56:04.478Z,2.9
2023-03-31T08:59:06.256Z,3.5
2023-03-31T09:02:08.265Z,3.3
2023-03-31T09:05:10.217Z,3.4
2023-03-31T09:08:12.175Z,3.4
2023-03-31T09:11:14.152Z,3.1
2023-03-31T09:14:16.121Z,2.8
2023-03-31T09:17:18.069Z,2.8
2023-03-31T09:20:20.053Z,2.4
2023-03-31T09:23:22.005Z,3
2023-03-31T09:26:23.960Z,2.4
2023-03-31T09:29:25.952Z,2.5
2023-03-31T09:32:27.898Z,2.8
2023-03-31T09:35:29.889Z,2.2
2023-03-31T09:38:31.826Z,2.3
2023-03-31T09:41:34.336Z,2.3
2023-03-31T09:44:35.920Z,2.1
2023-03-31T09:47:37.726Z,1.7
2023-03-31T09:50:39.658Z,1.6
2023-03-31T09:53:41.628Z,1.7
2023-03-31T09:56:43.648Z,2.3
2023-03-31T09:59:45.540Z,1.8
2023-03-31T10:02:47.557Z,1.8
2023-03-31T10:05:49.492Z,1.7
2023-03-31T10:08:51.471Z,1.9
2023-03-31T10:11:53.407Z,1.6
2023-03-31T10:14:55.384Z,2.2
2023-03-31T10:17:57.371Z,1.6
2023-03-31T10:20:59.314Z,2
2023-03-31T10:24:01.281Z,2.1
2023-03-31T10:27:03.318Z,1.9
2023-03-31T10:30:05.195Z,2.3
2023-03-31T10:33:15.476Z,3
2023-03-31T10:36:09.123Z,2.8
2023-03-31T10:39:11.081Z,2.3
2023-03-31T10:42:13.028Z,1.1
2023-03-31T10:45:23.347Z,1.3
2023-03-31T10:48:16.946Z,1.5
2023-03-31T10:51:18.940Z,1.5
2023-03-31T10:54:20.871Z,1.4
2023-03-31T10:57:22.896Z,1
2023-03-31T11:00:24.816Z,1
2023-03-31T11:03:26.813Z,1.2
2023-03-31T11:06:28.715Z,0.8
2023-03-31T11:09:30.699Z,0.8
2023-03-31T11:12:32.676Z,1.1
2023-03-31T11:15:34.666Z,1.2
2023-03-31T11:18:36.615Z,0.8
2023-03-31T11:21:38.559Z,0.6
2023-03-31T11:24:40.510Z,0.6
2023-03-31T11:27:42.477Z,0.8
2023-03-31T11:30:44.435Z,0.8
2023-03-31T11:33:46.397Z,0.8
2023-03-31T11:36:48.353Z,1
2023-03-31T11:39:50.324Z,1
2023-03-31T11:42:52.289Z,1.3
2023-03-31T11:45:54.252Z,1.1
2023-03-31T11:48:56.232Z,1.3
2023-03-31T11:51:58.170Z,1.6
2023-03-31T11:55:02.346Z,1.8
2023-03-31T11:58:02.115Z,1.7
2023-03-31T12:01:04.070Z,1.8
2023-03-31T12:04:06.090Z,1.7
2023-03-31T12:07:08.032Z,2.6
2023-03-31T12:10:10.012Z,2.4
2023-03-31T12:13:11.941Z,2.3
2023-03-31T12:16:13.950Z,1.9
2023-03-31T12:19:15.846Z,2.2
2023-03-31T12:22:17.806Z,2.2
2023-03-31T12:25:19.792Z,2.5
2023-03-31T12:28:21.737Z,2.2
2023-03-31T12:31:23.763Z,2.4
2023-03-31T12:34:25.656Z,2.7
2023-03-31T12:37:27.623Z,1.9
2023-03-31T12:40:29.570Z,2.1
2023-03-31T12:43:31.530Z,1.2
2023-03-31T12:46:33.536Z,1.3
2023-03-31T12:49:35.458Z,1.2
2023-03-31T12:52:37.426Z,1.2
2023-03-31T12:55:39.398Z,1.2
2023-03-31T12:58:41.342Z,1.4
2023-03-31T13:01:43.356Z,1.4
2023-03-31T13:04:45.300Z,1
2023-03-31T13:07:47.265Z,0.8
2023-03-31T13:10:49.337Z,1.6
2023-03-31T13:14:00.024Z,1
2023-03-31T13:16:55.099Z,1.2
2023-03-31T13:19:55.108Z,1.1
2023-03-31T13:22:57.066Z,1.3
2023-03-31T13:25:59.013Z,1.7
2023-03-31T13:29:00.994Z,1.3
2023-03-31T13:32:03.002Z,1.3
2023-03-31T13:35:04.951Z,1.5
2023-03-31T13:38:06.895Z,1.9
2023-03-31T13:41:08.923Z,1.3
2023-03-31T13:44:10.837Z,1.1
2023-03-31T13:47:12.764Z,1
2023-03-31T13:50:14.735Z,0.9
2023-03-31T13:53:16.685Z,0.9
2023-03-31T13:56:18.726Z,0.6
2023-03-31T13:59:20.624Z,0.6
2023-03-31T14:02:22.641Z,0.6
2023-03-31T14:05:24.556Z,0.7
2023-03-31T14:08:26.532Z,0.5
2023-03-31T14:11:28.501Z,0.4
2023-03-31T14:14:30.449Z,0.5
2023-03-31T14:17:32.441Z,0.6
2023-03-31T14:20:34.399Z,0.9
2023-03-31T14:23:36.386Z,0.6
2023-03-31T14:26:38.348Z,0.8
2023-03-31T14:29:40.306Z,0.9
2023-03-31T14:32:42.343Z,0.7
2023-03-31T14:35:44.286Z,0.9
2023-03-31T14:38:46.260Z,1
2023-03-31T14:41:48.226Z,0.7
2023-03-31T14:44:50.161Z,0.9
2023-03-31T14:47:52.172Z,0.8
2023-03-31T14:50:54.095Z,0.9
2023-03-31T14:53:56.130Z,1.2
2023-03-31T14:56:58.031Z,1.1
2023-03-31T15:00:00.007Z,0.8
2023-03-31T15:03:02.018Z,0.8
2023-03-31T15:06:03.891Z,1.1
2023-03-31T15:09:06.011Z,0.8
2023-03-31T15:12:07.879Z,1
2023-03-31T15:15:09.825Z,1
2023-03-31T15:18:11.963Z,1.1
2023-03-31T15:21:13.740Z,1
2023-03-31T15:24:15.703Z,1
2023-03-31T15:27:20.431Z,0.8
2023-03-31T15:30:19.668Z,1
2023-03-31T15:33:21.719Z,0.5
2023-03-31T15:36:23.749Z,0.6
2023-03-31T15:39:25.617Z,0.7
2023-03-31T15:42:32.593Z,0.7
2023-03-31T15:45:29.527Z,1
2023-03-31T15:48:31.496Z,0.9
2023-03-31T15:51:33.447Z,1
2023-03-31T15:54:35.413Z,0.6
2023-03-31T15:57:37.500Z,0.9
2023-03-31T16:00:39.438Z,1
2023-03-31T16:03:41.456Z,1.2
2023-03-31T16:06:45.970Z,0.9
2023-03-31T16:09:45.492Z,0.9
2023-03-31T16:12:47.459Z,1
2023-03-31T16:15:49.457Z,1.1
2023-03-31T16:18:51.401Z,0.8
2023-03-31T16:21:53.375Z,1.1
2023-03-31T16:24:55.343Z,1.1
2023-03-31T16:27:57.290Z,0.9
2023-03-31T16:30:59.281Z,1.1
2023-03-31T16:34:01.283Z,0.8
2023-03-31T16:37:03.319Z,1
2023-03-31T16:40:05.249Z,1.3
2023-03-31T16:43:07.246Z,1.7
2023-03-31T16:46:09.156Z,1.6
2023-03-31T16:49:11.181Z,1.6
2023-03-31T16:52:15.917Z,1.5
2023-03-31T16:55:17.877Z,1.3
2023-03-31T16:58:19.850Z,0.9
2023-03-31T17:01:21.811Z,1.1
2023-03-31T17:04:23.930Z,1.4
2023-03-31T17:07:25.842Z,1.1
2023-03-31T17:10:27.830Z,1
2023-03-31T17:13:29.773Z,1.5
2023-03-31T17:16:44.854Z,1.6
2023-03-31T17:19:33.684Z,1.3
2023-03-31T17:22:35.661Z,1.1
2023-03-31T17:25:37.630Z,1.4
2023-03-31T17:28:39.660Z,1.5
2023-03-31T17:31:41.708Z,1.4
2023-03-31T17:34:43.693Z,1.1
2023-03-31T17:37:45.647Z,1.4
2023-03-31T17:40:47.622Z,1.3
2023-03-31T17:43:49.576Z,1.1
2023-03-31T17:46:51.565Z,1.4
2023-03-31T17:49:53.562Z,1.6
2023-03-31T17:52:55.481Z,1.2
2023-03-31T17:55:57.463Z,1.6
2023-03-31T17:58:59.406Z,1
2023-03-31T18:02:01.504Z,1.3
2023-03-31T18:05:03.368Z,1.3
2023-03-31T18:08:05.325Z,1.3
2023-03-31T18:11:07.274Z,1.3
2023-03-31T18:14:09.236Z,1.4
2023-03-31T18:17:11.218Z,1.4
2023-03-31T18:20:16.239Z,1.2
2023-03-31T18:23:18.252Z,1.5
2023-03-31T18:26:20.206Z,1.3
2023-03-31T18:29:22.211Z,1.5
2023-03-31T18:32:24.278Z,1.3
2023-03-31T18:35:29.309Z,1.4
2023-03-31T18:38:31.189Z,1.7
2023-03-31T18:41:33.192Z,1.1
2023-03-31T18:44:35.178Z,1.3
2023-03-31T18:47:37.174Z,1.3
2023-03-31T18:50:39.142Z,1.6
2023-03-31T18:53:41.071Z,1.5
2023-03-31T18:56:43.138Z,1.4
2023-03-31T18:59:45.099Z,1.4
2023-03-31T19:02:47.101Z,1.3
2023-03-31T19:05:49.097Z,1.5
2023-03-31T19:08:51.112Z,1.5
2023-03-31T19:11:53.103Z,1.4
2023-03-31T19:14:55.037Z,1.2
2023-03-31T19:17:57.013Z,1.4
2023-03-31T19:20:58.962Z,1.5
2023-03-31T19:24:00.949Z,1.5
2023-03-31T19:27:02.928Z,1.5
2023-03-31T19:30:04.897Z,1.2
2023-03-31T19:33:06.905Z,1.5
2023-03-31T19:36:08.933Z,1.4
2023-03-31T19:39:10.872Z,1.1
2023-03-31T19:42:12.860Z,1.1
2023-03-31T19:45:17.655Z,1.2
2023-03-31T19:48:22.759Z,0.9
2023-03-31T19:51:24.952Z,1.4
2023-03-31T19:54:26.808Z,1.1
2023-03-31T19:57:28.826Z,1
2023-03-31T20:00:30.716Z,1.2
2023-03-31T20:03:32.945Z,1.2
2023-03-31T20:06:34.724Z,1
2023-03-31T20:09:36.620Z,1.3
2023-03-31T20:12:38.578Z,1.1
2023-03-31T20:15:40.898Z,0.9
2023-03-31T20:18:42.518Z,1
2023-03-31T20:21:44.474Z,1
2023-03-31T20:24:46.461Z,0.9
2023-03-31T20:27:48.453Z,1
2023-03-31T20:30:50.391Z,1
2023-03-31T20:33:52.335Z,0.8
2023-03-31T20:36:54.299Z,1.1
2023-03-31T20:39:56.276Z,1
2023-03-31T20:42:58.252Z,0.8
2023-03-31T20:46:00.211Z,0.9
2023-03-31T20:49:02.250Z,0.8
2023-03-31T20:52:04.140Z,0.7
2023-03-31T20:55:06.098Z,1
2023-03-31T20:58:08.064Z,1.4
2023-03-31T21:01:10.050Z,0.8
2023-03-31T21:04:12.044Z,1.4
2023-03-31T21:07:13.980Z,1.2
2023-03-31T21:10:15.927Z,0.8
2023-03-31T21:13:17.928Z,0.9
2023-03-31T21:16:19.894Z,0.9
2023-03-31T21:19:21.832Z,0.9
2023-03-31T21:22:23.792Z,0.9
2023-03-31T21:25:26.044Z,0.7
2023-03-31T21:28:27.711Z,1
2023-03-31T21:31:29.700Z,1.3
2023-03-31T21:34:31.641Z,1.2
2023-03-31T21:37:33.605Z,1.1
2023-03-31T21:40:35.559Z,1.2
2023-03-31T21:43:37.529Z,1
2023-03-31T21:46:39.627Z,1
2023-03-31T21:49:41.597Z,1
2023-03-31T21:52:43.485Z,0.8
2023-03-31T21:55:45.385Z,0.9
2023-03-31T21:58:47.383Z,0.9
2023-03-31T22:01:49.363Z,1
2023-03-31T22:04:51.390Z,1.3
2023-03-31T22:07:53.244Z,1
2023-03-31T22:10:55.197Z,1
2023-03-31T22:13:57.165Z,1.7
2023-03-31T22:16:59.116Z,0.7
2023-03-31T22:20:01.079Z,1.1
2023-03-31T22:23:03.033Z,1.1
2023-03-31T22:26:05.013Z,1.2
2023-03-31T22:29:06.996Z,1.1
2023-03-31T22:32:08.935Z,1.5
2023-03-31T22:35:10.866Z,1
2023-03-31T22:38:12.855Z,1
2023-03-31T22:41:14.802Z,1.3
2023-03-31T22:44:16.773Z,1.2
2023-03-31T22:47:18.751Z,0.9
2023-03-31T22:50:20.705Z,1.2
2023-03-31T22:53:22.668Z,1.1
2023-03-31T22:56:24.641Z,1.4
2023-03-31T22:59:26.605Z,1.3
2023-03-31T23:02:28.649Z,0.9
2023-03-31T23:05:30.788Z,1.1
2023-03-31T23:08:32.572Z,1.1
2023-03-31T23:11:34.520Z,1.3
2023-03-31T23:14:36.510Z,1.2
2023-03-31T23:17:38.467Z,1
2023-03-31T23:20:40.402Z,1
2023-03-31T23:23:42.406Z,1.1
2023-03-31T23:26:44.345Z,0.8
2023-03-31T23:29:46.298Z,1.1
2023-03-31T23:32:48.254Z,1.1
2023-03-31T23:35:50.242Z,1.3
2023-03-31T23:38:52.180Z,1.1
2023-03-31T23:41:54.164Z,1.2
2023-03-31T23:44:56.134Z,1.4
2023-03-31T23:47:58.108Z,1.2
2023-03-31T23:51:00.028Z,1.1
2023-03-31T23:54:02.023Z,1.1
2023-03-31T23:57:04.026Z,1.3
